Time;durP1;ratioP1;P1;durP2;ratioP2;P2;SDS_P1;SDS_P2;PMS_P1;PMS_P2;Temp;Humidity;BMP_temperature;BMP_pressure;BME280_temperature;BME280_humidity;BME280_pressure;Samples;Min_cycle;Max_cycle;Signal;HPM_P1;HPM_P2
2023/11/09 00:00:07;;;;;;;9.57;1.40;;;;;;;36.80;25.57;98067.63;7394964;19;20006;-81
2023/11/09 00:02:34;;;;;;;0.85;0.85;;;;;;;37.20;24.69;98068.97;7394885;19;20002;-81
2023/11/09 00:05:01;;;;;;;0.13;0.13;;;;;;;37.29;24.54;98069.78;7393780;19;20477;-81
2023/11/09 00:07:28;;;;;;;2.17;0.57;;;;;;;30.50;28.81;98074.66;7392067;19;20045;-81
2023/11/09 00:09:56;;;;;;;0.52;0.52;;;;;;;33.71;27.00;98071.91;7394931;19;20018;-81
2023/11/09 00:12:23;;;;;;;1.05;0.95;;;;;;;35.91;25.10;98059.63;7394292;19;20085;-81
2023/11/09 00:14:49;;;;;;;0.32;0.32;;;;;;;36.26;24.83;98050.09;7393851;19;20023;-81
2023/11/09 00:17:16;;;;;;;0.10;0.10;;;;;;;36.34;24.65;98062.56;7393655;19;20011;-81
2023/11/09 00:19:42;;;;;;;0.20;0.20;;;;;;;36.72;24.17;98056.66;7391148;19;20031;-83
2023/11/09 00:22:11;;;;;;;0.45;0.30;;;;;;;35.26;24.97;98058.34;7393020;19;20074;-81
2023/11/09 00:24:37;;;;;;;0.10;0.10;;;;;;;34.93;25.57;98062.66;7391947;19;20022;-81
2023/11/09 00:27:04;;;;;;;0.10;0.10;;;;;;;35.50;25.20;98050.16;7391881;19;20122;-81
2023/11/09 00:29:30;;;;;;;0.13;0.13;;;;;;;31.88;26.79;98049.63;7389587;19;20014;-81
2023/11/09 00:31:56;;;;;;;0.10;0.10;;;;;;;33.56;26.64;98041.19;7394656;19;20010;-81
2023/11/09 00:34:22;;;;;;;0.20;0.20;;;;;;;33.26;26.41;98049.72;7391425;19;20065;-81
2023/11/09 00:36:48;;;;;;;0.10;0.10;;;;;;;35.35;25.50;98041.84;7392970;19;20070;-82
2023/11/09 00:39:17;;;;;;;0.35;0.28;;;;;;;35.88;24.88;98032.03;7394292;19;20010;-81
2023/11/09 00:41:43;;;;;;;0.10;0.10;;;;;;;27.95;30.19;98045.81;7391624;19;20022;-81
2023/11/09 00:44:09;;;;;;;0.10;0.10;;;;;;;23.14;36.64;98052.00;7392431;19;20370;-81
2023/11/09 00:46:36;;;;;;;1.40;0.65;;;;;;;21.54;39.91;98050.34;7390494;19;20501;-81
2023/11/09 00:49:03;;;;;;;0.77;0.77;;;;;;;21.61;41.00;98043.81;7391846;19;20407;-81
2023/11/09 00:51:30;;;;;;;0.30;0.30;;;;;;;21.45;41.97;98036.91;7393271;19;20010;-79
2023/11/09 00:53:56;;;;;;;0.10;0.10;;;;;;;21.49;42.24;98037.22;7393246;19;20018;-81
2023/11/09 00:56:23;;;;;;;0.10;0.10;;;;;;;20.98;43.54;98030.56;7391128;19;20015;-81
2023/11/09 00:58:49;;;;;;;0.10;0.10;;;;;;;20.96;44.10;98024.72;7392541;19;20022;-81
2023/11/09 01:01:15;;;;;;;0.15;0.15;;;;;;;33.93;29.43;98002.44;7392908;19;20020;-82
2023/11/09 01:03:41;;;;;;;0.20;0.20;;;;;;;31.28;31.07;97987.78;7391912;19;20002;-82
2023/11/09 01:06:08;;;;;;;0.52;0.38;;;;;;;35.40;27.08;97980.44;7391827;19;20130;-82
2023/11/09 01:08:34;;;;;;;1.52;0.32;;;;;;;32.41;29.57;97982.97;7394090;19;20005;-82
2023/11/09 01:11:05;;;;;;;0.10;0.10;;;;;;;35.06;26.90;97971.09;7390949;19;20015;-82
2023/11/09 01:13:35;;;;;;;1.10;1.05;;;;;;;34.37;26.47;97982.56;7390932;19;20002;-82
2023/11/09 01:16:02;;;;;;;0.10;0.10;;;;;;;18.40;44.88;98002.25;7392722;19;20011;-82
2023/11/09 01:18:29;;;;;;;0.45;0.45;;;;;;;18.38;47.02;97991.56;7391943;19;20026;-82
2023/11/09 01:20:55;;;;;;;0.10;0.10;;;;;;;22.98;50.81;97979.91;7393919;19;20006;-83
2023/11/09 01:23:21;;;;;;;1.65;0.55;;;;;;;23.16;40.36;97983.97;7391789;19;20006;-81
2023/11/09 01:25:47;;;;;;;0.10;0.10;;;;;;;13.16;91.46;97996.56;7390698;19;20006;-82
2023/11/09 01:28:14;;;;;;;0.93;0.63;;;;;;;22.15;75.63;97982.63;7395543;19;20362;-83
2023/11/09 01:30:40;;;;;;;13.63;0.77;;;;;;;16.98;75.31;97991.00;7388643;19;20003;-83
2023/11/09 01:33:06;;;;;;;0.30;0.30;;;;;;;17.14;76.09;97975.56;7390999;19;20006;-83
2023/11/09 01:35:32;;;;;;;1.95;1.05;;;;;;;20.00;64.23;97971.88;7390454;19;20014;-82
2023/11/09 01:37:58;;;;;;;0.10;0.10;;;;;;;16.41;80.73;97982.94;7390976;19;20066;-83
2023/11/09 01:40:26;;;;;;;0.10;0.10;;;;;;;15.88;88.84;97982.81;7389452;19;20031;-83
2023/11/09 01:42:55;;;;;;;0.10;0.10;;;;;;;16.05;87.67;97987.91;7391913;19;20053;-82
2023/11/09 01:45:22;;;;;;;0.30;0.30;;;;;;;15.40;92.74;97985.78;7389408;19;20353;-82
2023/11/09 01:47:48;;;;;;;0.38;0.38;;;;;;;15.35;94.44;97973.44;7391438;19;20720;-82
2023/11/09 01:50:16;;;;;;;0.10;0.10;;;;;;;15.16;96.37;97970.88;7391573;19;20010;-82
2023/11/09 01:52:43;;;;;;;8.07;1.85;;;;;;;15.41;95.16;97964.84;7391287;19;20027;-82
2023/11/09 01:55:09;;;;;;;0.50;0.40;;;;;;;15.26;96.64;97961.97;7392068;19;20336;-82
2023/11/09 01:57:36;;;;;;;0.28;0.28;;;;;;;15.37;96.96;97973.63;7389684;19;20464;-83
2023/11/09 02:00:03;;;;;;;0.10;0.10;;;;;;;15.29;96.91;97966.47;7389000;19;20081;-83
2023/11/09 02:02:40;;;;;;;0.10;0.10;;;;;;;15.13;99.81;97960.78;7391413;19;20010;-83
2023/11/09 02:05:08;;;;;;;0.20;0.13;;;;;;;15.04;100.00;97964.09;7389693;19;20070;-83
2023/11/09 02:07:36;;;;;;;0.15;0.15;;;;;;;15.23;100.00;97957.44;7386898;19;20014;-82
2023/11/09 02:10:07;;;;;;;0.10;0.10;;;;;;;18.13;84.26;97949.25;7385745;19;20025;-82
2023/11/09 02:12:35;;;;;;;0.10;0.10;;;;;;;19.33;75.75;97949.53;7386576;19;20023;-82
2023/11/09 02:15:02;;;;;;;0.25;0.25;;;;;;;19.64;73.10;97950.69;7389155;19;20035;-82
2023/11/09 02:17:29;;;;;;;0.10;0.10;;;;;;;19.74;71.33;97952.81;7388669;19;20006;-82
2023/11/09 02:19:56;;;;;;;0.10;0.10;;;;;;;19.85;70.30;97941.75;7389743;19;20331;-82
2023/11/09 02:22:26;;;;;;;0.10;0.10;;;;;;;19.96;69.48;97946.13;7388895;19;20018;-79
2023/11/09 02:24:56;;;;;;;0.10;0.10;;;;;;;17.70;66.98;97943.31;7391848;19;20006;-81
2023/11/09 02:27:22;;;;;;;0.10;0.10;;;;;;;10.45;100.00;97958.66;7388344;19;20453;-79
2023/11/09 02:29:48;;;;;;;0.50;0.30;;;;;;;10.14;100.00;97957.16;7390274;19;20018;-79
2023/11/09 02:32:14;;;;;;;0.10;0.00;;;;;;;9.47;100.00;97942.94;7389706;19;20014;-79
2023/11/09 02:34:41;;;;;;;0.10;0.10;;;;;;;10.23;100.00;97951.25;7389640;19;20389;-80
2023/11/09 02:37:09;;;;;;;0.10;0.10;;;;;;;14.00;100.00;97948.69;7387819;19;20357;-79
2023/11/09 02:39:35;;;;;;;0.60;0.52;;;;;;;16.80;100.00;97933.84;7387218;19;20010;-79
2023/11/09 02:42:02;;;;;;;0.10;0.10;;;;;;;14.94;100.00;97937.13;7389396;19;20118;-79
2023/11/09 02:44:29;;;;;;;0.10;0.10;;;;;;;14.49;100.00;97934.03;7390136;19;20011;-79
2023/11/09 02:46:55;;;;;;;0.28;0.28;;;;;;;20.48;83.47;97921.25;7389707;19;20007;-79
2023/11/09 02:49:22;;;;;;;13.77;0.80;;;;;;;32.58;38.40;97892.69;7386848;19;20010;-79
2023/11/09 02:51:48;;;;;;;0.52;0.43;;;;;;;24.95;49.56;97904.44;7388249;19;20431;-79
2023/11/09 02:54:14;;;;;;;0.20;0.10;;;;;;;24.29;52.05;97900.38;7390603;19;20022;-80
2023/11/09 02:56:40;;;;;;;0.25;0.25;;;;;;;23.17;53.16;97894.59;7387495;19;20077;-80
2023/11/09 02:59:06;;;;;;;0.10;0.08;;;;;;;22.22;55.79;97884.56;7388662;19;20370;-80
2023/11/09 03:01:33;;;;;;;4.90;1.20;;;;;;;21.37;57.38;97877.72;7388089;19;20013;-80
2023/11/09 03:03:59;;;;;;;0.10;0.10;;;;;;;20.78;59.54;97879.03;7388321;19;20025;-80
2023/11/09 03:06:25;;;;;;;0.10;0.10;;;;;;;20.65;60.11;97862.50;7387786;19;20018;-80
2023/11/09 03:08:51;;;;;;;2.95;0.73;;;;;;;19.76;63.19;97857.69;7388309;19;20026;-80
2023/11/09 03:11:18;;;;;;;0.10;0.10;;;;;;;19.74;63.56;97845.50;7387185;19;20010;-79
2023/11/09 03:13:44;;;;;;;0.90;0.52;;;;;;;19.85;63.46;97850.59;7389865;19;20014;-80
2023/11/09 03:16:11;;;;;;;0.10;0.10;;;;;;;19.42;64.13;97833.16;7388999;19;20070;-80
2023/11/09 03:18:37;;;;;;;0.22;0.15;;;;;;;19.27;65.51;97833.31;7389607;19;20359;-80
2023/11/09 03:21:03;;;;;;;1.00;0.90;;;;;;;19.15;66.16;97828.75;7388170;19;20077;-80
2023/11/09 03:23:30;;;;;;;0.10;0.10;;;;;;;19.26;66.52;97839.53;7387704;19;20018;-80
2023/11/09 03:25:56;;;;;;;0.50;0.50;;;;;;;19.25;66.72;97838.78;7389173;19;20006;-80
2023/11/09 03:28:22;;;;;;;0.10;0.10;;;;;;;19.24;66.55;97834.47;7386170;19;20444;-80
2023/11/09 03:30:48;;;;;;;2.30;0.60;;;;;;;19.83;63.96;97825.03;7388992;19;20489;-80
2023/11/09 03:33:14;;;;;;;0.80;0.25;;;;;;;18.88;66.30;97826.63;7386388;19;20018;-80
2023/11/09 03:35:40;;;;;;;1.35;0.25;;;;;;;18.73;67.90;97820.44;7386430;19;20007;-80
2023/11/09 03:38:06;;;;;;;0.10;0.10;;;;;;;18.59;68.59;97817.19;7388955;19;20006;-80
2023/11/09 03:40:32;;;;;;;0.10;0.10;;;;;;;20.94;61.04;97809.47;7386380;19;20010;-80
2023/11/09 03:42:58;;;;;;;0.10;0.10;;;;;;;21.83;58.28;97810.22;7389716;19;20003;-80
2023/11/09 03:45:25;;;;;;;0.30;0.30;;;;;;;22.06;56.25;97807.63;7387763;19;20478;-80
2023/11/09 03:47:53;;;;;;;0.10;0.10;;;;;;;22.13;55.36;97809.53;7388117;19;20022;-80
2023/11/09 03:50:19;;;;;;;0.10;0.10;;;;;;;21.97;55.31;97802.72;7386893;19;20017;-79
2023/11/09 03:52:45;;;;;;;0.10;0.10;;;;;;;22.00;54.38;97807.19;7386639;19;20036;-80
2023/11/09 03:55:12;;;;;;;0.10;0.10;;;;;;;22.69;52.64;97811.88;7386107;19;20010;-80
2023/11/09 03:57:38;;;;;;;0.28;0.28;;;;;;;22.65;51.94;97811.63;7386684;19;20075;-80
2023/11/09 04:00:11;;;;;;;0.10;0.10;;;;;;;22.53;50.95;97817.19;7386609;19;20010;-80
2023/11/09 04:02:42;;;;;;;0.10;0.10;;;;;;;22.32;50.57;97815.09;7386430;19;20477;-80
2023/11/09 04:05:09;;;;;;;0.10;0.10;;;;;;;22.19;50.48;97815.59;7388887;19;20011;-80
2023/11/09 04:07:38;;;;;;;0.10;0.10;;;;;;;22.19;50.27;97806.34;7394391;19;20015;-80
2023/11/09 04:10:06;;;;;;;0.10;0.10;;;;;;;19.08;54.56;97807.78;7390177;19;20114;-80
2023/11/09 04:12:32;;;;;;;0.25;0.25;;;;;;;21.23;50.44;97812.31;7386942;19;20038;-80
2023/11/09 04:14:59;;;;;;;0.10;0.00;;;;;;;19.41;54.75;97806.25;7388988;19;20385;-80
2023/11/09 04:17:26;;;;;;;0.20;0.20;;;;;;;19.71;54.38;97801.50;7387469;19;20035;-80
2023/11/09 04:19:52;;;;;;;0.28;0.28;;;;;;;19.59;54.60;97802.03;7389421;19;20015;-80
2023/11/09 04:22:18;;;;;;;0.10;0.10;;;;;;;19.45;54.64;97800.91;7389296;19;20365;-80
2023/11/09 04:24:44;;;;;;;0.10;0.10;;;;;;;20.10;54.18;97801.03;7391074;19;20011;-80
2023/11/09 04:27:11;;;;;;;0.10;0.10;;;;;;;14.51;61.09;97814.50;7393796;19;20374;-80
2023/11/09 04:29:38;;;;;;;0.20;0.20;;;;;;;7.36;100.00;97825.53;7393394;19;20086;-80
2023/11/09 04:32:04;;;;;;;1.38;0.38;;;;;;;6.28;100.00;97821.47;7392899;19;20007;-80
2023/11/09 04:34:33;;;;;;;0.32;0.32;;;;;;;5.21;100.00;97820.50;7392737;19;20082;-80
2023/11/09 04:36:59;;;;;;;0.20;0.20;;;;;;;5.26;100.00;97822.56;7392960;19;20023;-80
2023/11/09 04:39:29;;;;;;;0.10;0.10;;;;;;;4.66;100.00;97815.19;7391134;19;20692;-80
2023/11/09 04:41:59;;;;;;;0.10;0.10;;;;;;;5.62;100.00;97816.31;7393172;19;20006;-80
2023/11/09 04:44:26;;;;;;;0.40;0.40;;;;;;;8.88;100.00;97807.47;7391928;19;20006;-79
2023/11/09 04:46:55;;;;;;;0.10;0.10;;;;;;;5.73;100.00;97804.59;7391082;19;20018;-80
2023/11/09 04:49:25;;;;;;;0.20;0.20;;;;;;;6.56;100.00;97802.97;7390054;19;20003;-79
2023/11/09 04:51:51;;;;;;;0.20;0.20;;;;;;;4.92;100.00;97804.19;7394088;19;20480;-80
2023/11/09 04:54:20;;;;;;;0.10;0.10;;;;;;;5.96;100.00;97795.19;7391059;19;20118;-79
2023/11/09 05:07:25;;;;;;;0.10;0.10;;;;;;;4.30;100.00;97788.25;7392197;19;20015;-80
2023/11/09 05:09:51;;;;;;;0.10;0.10;;;;;;;14.38;100.00;97769.81;7393010;19;20489;-80
2023/11/09 05:12:18;;;;;;;0.10;0.10;;;;;;;17.05;88.89;97768.78;7392651;19;20691;-79
2023/11/09 05:14:44;;;;;;;0.10;0.10;;;;;;;18.17;77.23;97768.53;7390892;19;20469;-81
2023/11/09 05:17:13;;;;;;;0.13;0.13;;;;;;;18.45;73.30;97767.38;7390341;19;20014;-80
2023/11/09 05:19:40;;;;;;;0.10;0.10;;;;;;;18.47;71.63;97764.72;7391106;19;20469;-80
2023/11/09 05:22:10;;;;;;;0.20;0.20;;;;;;;19.13;68.91;97761.63;7392852;19;20022;-80
2023/11/09 05:24:42;;;;;;;0.13;0.13;;;;;;;19.16;67.29;97760.47;7392248;19;20022;-80
2023/11/09 05:27:10;;;;;;;0.10;0.10;;;;;;;19.14;65.96;97763.13;7392381;19;20558;-80
2023/11/09 05:29:36;;;;;;;0.10;0.10;;;;;;;19.14;64.79;97774.41;7390447;19;20017;-80
2023/11/09 05:32:11;;;;;;;0.30;0.15;;;;;;;19.07;64.71;97769.63;7392079;19;20019;-80
2023/11/09 05:34:38;;;;;;;0.10;0.10;;;;;;;19.19;64.53;97769.84;7391352;19;20033;-80
2023/11/09 05:37:05;;;;;;;0.52;0.52;;;;;;;19.21;63.61;97767.91;7390781;19;20014;-80
2023/11/09 05:39:32;;;;;;;1.65;0.30;;;;;;;19.04;63.77;97767.94;7391569;19;19999;-81
2023/11/09 05:42:03;;;;;;;0.17;0.17;;;;;;;19.04;62.99;97758.72;7393684;19;20007;-80
2023/11/09 05:44:29;;;;;;;0.20;0.20;;;;;;;19.49;62.05;97758.88;7390065;19;20014;-80
2023/11/09 05:46:55;;;;;;;0.40;0.40;;;;;;;19.72;60.97;97760.59;7391449;19;19999;-81
2023/11/09 05:49:23;;;;;;;0.20;0.20;;;;;;;19.49;61.50;97758.88;7390168;19;20386;-80
2023/11/09 05:51:50;;;;;;;0.20;0.20;;;;;;;19.41;61.14;97746.94;7391810;19;20015;-80
2023/11/09 05:54:17;;;;;;;0.22;0.22;;;;;;;19.62;60.71;97738.72;7392676;19;20014;-80
2023/11/09 05:56:43;;;;;;;0.10;0.10;;;;;;;20.27;58.20;97738.75;7391566;19;20014;-80
2023/11/09 05:59:10;;;;;;;0.10;0.10;;;;;;;19.65;59.85;97737.53;7391271;19;20021;-80
2023/11/09 06:01:37;;;;;;;0.10;0.10;;;;;;;19.24;61.07;97721.59;7390811;19;20035;-80
2023/11/09 06:04:03;;;;;;;0.50;0.50;;;;;;;19.20;61.71;97726.91;7389722;19;20368;-80
2023/11/09 06:06:30;;;;;;;0.15;0.15;;;;;;;19.10;61.57;97712.00;7388499;19;20014;-81
2023/11/09 06:08:57;;;;;;;0.52;0.52;;;;;;;19.36;61.76;97727.47;7389831;19;20047;-80
2023/11/09 06:11:24;;;;;;;0.30;0.30;;;;;;;19.80;61.00;97713.19;7387753;19;20028;-80
2023/11/09 06:13:54;;;;;;;0.13;0.10;;;;;;;20.87;58.52;97708.53;7391622;19;20020;-80
2023/11/09 06:16:20;;;;;;;0.40;0.30;;;;;;;24.50;52.21;97693.25;7390516;19;20035;-80
2023/11/09 06:18:46;;;;;;;0.10;0.00;;;;;;;26.44;46.66;97690.25;7391292;19;20014;-80
2023/11/09 06:21:12;;;;;;;0.98;0.10;;;;;;;24.04;49.95;97682.72;7390046;19;20027;-80
2023/11/09 06:23:38;;;;;;;0.73;0.73;;;;;;;27.50;43.26;97691.09;7390398;19;20011;-80
2023/11/09 06:26:05;;;;;;;8.35;1.08;;;;;;;22.37;50.26;97714.72;7389553;19;20035;-80
2023/11/09 06:28:31;;;;;;;0.10;0.08;;;;;;;22.37;49.42;97722.50;7388901;19;20018;-80
2023/11/09 06:30:58;;;;;;;0.10;0.10;;;;;;;21.09;52.95;97715.06;7390358;19;20353;-80
2023/11/09 06:33:24;;;;;;;0.85;0.85;;;;;;;20.61;54.83;97703.81;7390255;19;20030;-80
2023/11/09 06:35:50;;;;;;;0.10;0.10;;;;;;;20.41;56.01;97705.13;7389215;19;20007;-80
2023/11/09 06:38:19;;;;;;;0.10;0.10;;;;;;;20.45;56.30;97708.25;7388947;19;20010;-81
2023/11/09 06:40:47;;;;;;;0.38;0.38;;;;;;;20.54;56.32;97707.50;7390127;19;20025;-80
2023/11/09 06:43:14;;;;;;;1.08;1.08;;;;;;;24.47;48.53;97693.75;7387836;19;20020;-80
2023/11/09 06:45:40;;;;;;;0.30;0.20;;;;;;;23.70;48.89;97689.19;7388550;19;20006;-80
2023/11/09 06:48:07;;;;;;;0.82;0.47;;;;;;;25.90;45.99;97687.44;7389446;19;20075;-81
2023/11/09 06:50:37;;;;;;;0.20;0.20;;;;;;;29.28;40.89;97670.78;7389454;19;20015;-81
2023/11/09 06:53:03;;;;;;;0.17;0.17;;;;;;;22.99;48.93;97680.44;7388722;19;20022;-81
2023/11/09 06:55:29;;;;;;;0.17;0.17;;;;;;;22.83;49.95;97685.06;7390456;19;20021;-80
2023/11/09 06:57:55;;;;;;;0.10;0.10;;;;;;;22.53;51.05;97676.06;7390065;19;20003;-81
2023/11/09 07:00:22;;;;;;;1.38;0.60;;;;;;;24.23;49.73;97680.97;7386946;19;20013;-80
2023/11/09 07:02:49;;;;;;;0.17;0.10;;;;;;;23.59;48.50;97681.38;7387583;19;20022;-81
2023/11/09 07:05:15;;;;;;;0.40;0.25;;;;;;;23.04;50.32;97676.50;7388496;19;20014;-81
2023/11/09 07:07:41;;;;;;;0.75;0.47;;;;;;;23.64;49.65;97674.59;7388683;19;20028;-81
2023/11/09 07:10:08;;;;;;;0.10;0.10;;;;;;;22.69;50.30;97670.00;7389098;19;20022;-81
2023/11/09 07:12:35;;;;;;;0.28;0.28;;;;;;;22.59;51.04;97679.34;7387138;19;20056;-80
2023/11/09 07:15:02;;;;;;;0.20;0.20;;;;;;;23.90;48.22;97673.34;7388951;19;20070;-81
2023/11/09 07:17:28;;;;;;;4.03;0.35;;;;;;;28.50;42.14;97675.50;7388578;19;20386;-80
2023/11/09 07:19:55;;;;;;;0.10;0.10;;;;;;;28.22;40.69;97674.31;7388288;19;20007;-81
2023/11/09 07:22:21;;;;;;;0.20;0.20;;;;;;;27.16;41.83;97678.06;7387015;19;20477;-80
2023/11/09 07:24:56;;;;;;;0.10;0.10;;;;;;;28.52;40.31;97678.44;7388635;19;20472;-81
2023/11/09 07:27:24;;;;;;;0.10;0.10;;;;;;;27.86;40.72;97687.00;7385872;19;20011;-80
2023/11/09 07:29:50;;;;;;;0.10;0.10;;;;;;;28.26;39.65;97676.63;7387649;19;20014;-81
2023/11/09 07:32:16;;;;;;;0.32;0.32;;;;;;;28.27;39.74;97678.81;7389631;19;20006;-81
2023/11/09 07:34:43;;;;;;;0.10;0.10;;;;;;;29.15;38.54;97686.75;7385868;19;20031;-81
2023/11/09 07:37:13;;;;;;;0.10;0.10;;;;;;;29.19;38.20;97678.34;7388480;19;20501;-81
2023/11/09 07:39:40;;;;;;;0.10;0.10;;;;;;;29.52;37.51;97672.41;7391317;19;20010;-81
2023/11/09 07:42:07;;;;;;;0.28;0.28;;;;;;;29.26;37.46;97665.69;7395645;19;20018;-81
2023/11/09 07:44:33;;;;;;;0.10;0.10;;;;;;;27.97;38.86;97671.03;7396358;19;20454;-81
2023/11/09 07:46:59;;;;;;;0.10;0.10;;;;;;;28.27;38.76;97661.66;7392700;19;20422;-80
2023/11/09 07:49:30;;;;;;;0.10;0.10;;;;;;;29.06;37.93;97670.63;7393791;19;20375;-80
2023/11/09 07:51:58;;;;;;;0.35;0.35;;;;;;;25.33;43.11;97673.00;7393087;19;20014;-81
2023/11/09 07:54:25;;;;;;;0.20;0.20;;;;;;;27.99;39.04;97671.88;7392776;19;20003;-80
2023/11/09 07:56:52;;;;;;;0.10;0.10;;;;;;;28.17;39.08;97658.38;7393425;19;20010;-81
2023/11/09 07:59:18;;;;;;;0.10;0.10;;;;;;;28.28;38.78;97665.25;7390431;19;20021;-80
2023/11/09 08:01:44;;;;;;;0.10;0.10;;;;;;;28.51;38.35;97659.06;7392197;19;20015;-81
2023/11/09 08:04:12;;;;;;;0.10;0.10;;;;;;;28.82;38.00;97652.47;7395025;19;20023;-80
2023/11/09 08:06:38;;;;;;;0.10;0.10;;;;;;;29.11;37.72;97661.50;7393718;19;20139;-81
2023/11/09 08:09:09;;;;;;;0.15;0.13;;;;;;;29.12;37.38;97647.94;7392778;19;20007;-80
2023/11/09 08:11:37;;;;;;;0.10;0.10;;;;;;;28.99;37.43;97648.84;7392725;19;20010;-80
2023/11/09 08:14:04;;;;;;;0.10;0.00;;;;;;;29.02;37.22;97647.53;7395192;19;20015;-81
2023/11/09 08:16:31;;;;;;;0.10;0.10;;;;;;;29.03;37.07;97649.00;7392917;19;20018;-81
2023/11/09 08:19:03;;;;;;;0.10;0.00;;;;;;;29.01;37.04;97648.91;7393991;19;20469;-80
2023/11/09 08:21:30;;;;;;;0.10;0.10;;;;;;;28.91;37.26;97649.25;7392889;19;20021;-80
2023/11/09 08:23:56;;;;;;;0.10;0.10;;;;;;;28.82;37.07;97641.00;7394054;19;20018;-81
2023/11/09 08:26:23;;;;;;;0.10;0.10;;;;;;;28.78;37.23;97635.84;7392623;19;20489;-81
2023/11/09 08:28:49;;;;;;;0.10;0.10;;;;;;;28.65;37.20;97636.03;7390960;19;20032;-81
2023/11/09 08:31:15;;;;;;;0.10;0.03;;;;;;;28.07;37.99;97643.59;7393172;19;20007;-81
2023/11/09 08:33:41;;;;;;;0.10;0.10;;;;;;;28.56;37.17;97632.06;7394428;19;20015;-81
2023/11/09 08:36:10;;;;;;;0.30;0.25;;;;;;;29.07;36.80;97631.94;7394251;19;20400;-81
2023/11/09 08:38:39;;;;;;;0.10;0.10;;;;;;;29.09;36.07;97641.38;7391804;19;20013;-81
2023/11/09 08:41:06;;;;;;;0.55;0.55;;;;;;;29.02;36.23;97630.34;7393173;19;20006;-81
2023/11/09 08:43:33;;;;;;;0.10;0.10;;;;;;;28.89;36.13;97631.25;7392520;19;20007;-80
2023/11/09 08:46:02;;;;;;;0.10;0.10;;;;;;;29.19;35.78;97632.47;7390712;19;20050;-81
2023/11/09 08:48:31;;;;;;;0.15;0.08;;;;;;;29.28;35.98;97627.78;7393528;19;20011;-81
2023/11/09 08:51:01;;;;;;;0.10;0.10;;;;;;;29.51;35.58;97616.47;7390157;19;20341;-81
2023/11/09 08:53:31;;;;;;;0.30;0.20;;;;;;;29.29;35.93;97621.38;7392952;19;20009;-81
2023/11/09 08:55:59;;;;;;;2.03;0.60;;;;;;;29.58;35.72;97621.03;7392421;19;20014;-81
2023/11/09 08:58:25;;;;;;;0.10;0.00;;;;;;;29.65;35.36;97607.63;7392802;19;20011;-80
2023/11/09 09:00:53;;;;;;;0.10;0.10;;;;;;;29.51;35.55;97610.72;7393355;19;20468;-81
2023/11/09 09:03:23;;;;;;;0.15;0.15;;;;;;;29.53;35.68;97596.44;7389950;19;19999;-80
2023/11/09 09:05:52;;;;;;;0.10;0.00;;;;;;;29.51;35.61;97598.50;7394734;19;20014;-82
2023/11/09 09:08:18;;;;;;;0.43;0.43;;;;;;;29.48;35.12;97606.28;7391979;19;20045;-79
2023/11/09 09:10:44;;;;;;;1.00;0.22;;;;;;;29.31;34.91;97598.50;7392672;19;20024;-81
2023/11/09 09:13:12;;;;;;;0.10;0.10;;;;;;;29.40;34.92;97596.66;7391377;19;20070;-81
2023/11/09 09:15:40;;;;;;;0.10;0.10;;;;;;;29.14;34.89;97584.94;7391681;19;20033;-81
2023/11/09 09:18:09;;;;;;;0.80;0.80;;;;;;;29.33;34.74;97580.63;7392274;19;20054;-81
2023/11/09 09:20:37;;;;;;;0.15;0.05;;;;;;;29.43;34.62;97581.00;7391068;19;20083;-80
2023/11/09 09:23:04;;;;;;;0.10;0.00;;;;;;;29.19;34.90;97586.59;7392739;19;20034;-81
2023/11/09 09:25:31;;;;;;;0.10;0.10;;;;;;;29.06;35.04;97585.34;7390571;19;20011;-81
2023/11/09 09:27:57;;;;;;;0.15;0.15;;;;;;;28.54;35.13;97575.41;7391027;19;20482;-81
2023/11/09 09:30:25;;;;;;;0.10;0.10;;;;;;;28.94;35.10;97582.03;7392790;19;20127;-80
2023/11/09 09:32:52;;;;;;;0.10;0.00;;;;;;;28.98;34.63;97584.31;7391256;19;20085;-80
2023/11/09 09:35:20;;;;;;;0.20;0.20;;;;;;;28.67;35.12;97584.53;7392144;19;20090;-79
2023/11/09 09:37:47;;;;;;;0.25;0.10;;;;;;;28.71;35.38;97591.16;7391560;19;20082;-80
2023/11/09 09:40:17;;;;;;;0.10;0.03;;;;;;;23.93;39.90;97589.63;7392984;19;20486;-80
2023/11/09 09:42:53;;;;;;;0.10;0.10;;;;;;;27.87;36.37;97571.19;7392247;19;20035;-80
2023/11/09 09:45:22;;;;;;;0.10;0.10;;;;;;;28.35;35.87;97578.94;7390242;19;20006;-80
2023/11/09 09:47:50;;;;;;;0.30;0.30;;;;;;;28.45;36.30;97581.50;7392131;19;20108;-81
2023/11/09 09:50:17;;;;;;;0.20;0.10;;;;;;;30.03;34.53;97577.44;7390679;19;20035;-81
2023/11/09 09:52:47;;;;;;;0.10;0.10;;;;;;;24.53;41.12;97591.66;7389766;19;20687;-80
2023/11/09 09:55:15;;;;;;;0.15;0.15;;;;;;;16.63;57.54;97605.59;7391438;19;20014;-81
2023/11/09 09:57:45;;;;;;;0.95;0.55;;;;;;;10.02;100.00;97621.28;7391173;19;20590;-82
2023/11/09 10:00:14;;;;;;;0.10;0.10;;;;;;;13.62;100.00;97606.31;7391168;19;20667;-80
2023/11/09 10:02:40;;;;;;;0.10;0.10;;;;;;;26.17;48.62;97584.72;7385097;19;20042;-80
2023/11/09 10:05:12;;;;;;;0.10;0.10;;;;;;;12.01;100.00;97612.28;7389975;19;20006;-81
2023/11/09 10:08:08;;;;;;;0.10;0.10;;;;;;;11.83;100.00;97613.94;7390264;19;20014;-81
2023/11/09 10:10:36;;;;;;;0.10;0.10;;;;;;;8.99;100.00;97613.09;7388614;19;20017;-81
2023/11/09 10:13:06;;;;;;;0.20;0.20;;;;;;;13.16;100.00;97605.28;7391926;19;20014;-81
2023/11/09 10:15:33;;;;;;;0.10;0.10;;;;;;;11.93;100.00;97614.97;7390170;19;20007;-81
2023/11/09 10:18:00;;;;;;;0.10;0.10;;;;;;;9.93;100.00;97603.69;7391092;19;20408;-81
2023/11/09 10:20:27;;;;;;;1.13;0.30;;;;;;;9.57;100.00;97607.19;7390865;19;20078;-80
2023/11/09 10:22:54;;;;;;;0.98;0.40;;;;;;;9.86;100.00;97607.06;7393432;19;20676;-81
2023/11/09 10:25:26;;;;;;;0.10;0.00;;;;;;;11.20;100.00;97597.41;7388863;19;20077;-81
2023/11/09 10:28:00;;;;;;;0.10;0.10;;;;;;;12.77;100.00;97597.84;7389212;19;20354;-81
2023/11/09 10:30:33;;;;;;;0.10;0.10;;;;;;;10.80;100.00;97618.88;7387722;19;20011;-81
2023/11/09 10:33:03;;;;;;;0.10;0.00;;;;;;;9.50;100.00;97616.09;7391194;19;20363;-81
2023/11/09 10:35:29;;;;;;;0.10;0.10;;;;;;;15.65;100.00;97605.22;7389394;19;20415;-80
2023/11/09 10:37:57;;;;;;;0.35;0.30;;;;;;;26.51;63.24;97594.94;7387672;19;20450;-81
2023/11/09 10:40:24;;;;;;;0.15;0.15;;;;;;;29.29;50.02;97584.09;7388236;19;20010;-81
2023/11/09 10:42:52;;;;;;;0.45;0.45;;;;;;;30.33;45.11;97580.59;7389347;19;20030;-81
2023/11/09 10:45:22;;;;;;;0.10;0.00;;;;;;;30.67;41.99;97585.31;7388683;19;20043;-80
2023/11/09 10:47:52;;;;;;;0.90;0.47;;;;;;;30.89;39.82;97568.06;7387837;19;20039;-80
2023/11/09 10:50:21;;;;;;;1.65;0.30;;;;;;;31.42;38.75;97564.63;7388854;19;20376;-80
2023/11/09 10:52:49;;;;;;;0.13;0.13;;;;;;;19.62;60.47;97577.03;7391391;19;20021;-80
2023/11/09 10:55:16;;;;;;;0.10;0.05;;;;;;;33.88;34.97;97542.31;7389341;19;20011;-80
2023/11/09 10:57:43;;;;;;;2.88;1.42;;;;;;;32.25;35.98;97538.75;7387768;19;20011;-80
2023/11/09 11:00:11;;;;;;;0.35;0.10;;;;;;;32.08;35.51;97537.63;7389282;19;20044;-80
2023/11/09 11:02:53;;;;;;;1.75;0.70;;;;;;;32.03;35.22;97529.56;7389125;19;20067;-80
2023/11/09 11:05:25;;;;;;;0.17;0.15;;;;;;;31.60;35.42;97524.09;7388648;19;20014;-80
2023/11/09 11:07:59;;;;;;;0.10;0.10;;;;;;;31.79;34.57;97511.66;7389992;19;20092;-80
2023/11/09 11:10:30;;;;;;;0.40;0.30;;;;;;;31.99;34.30;97503.53;7387703;19;20012;-81
2023/11/09 11:13:05;;;;;;;;;;;;;;;31.70;34.71;97507.09;7389008;19;20031;-81
2023/11/09 11:16:16;;;;;;;7.82;0.40;;;;;;;31.29;34.48;97514.59;7393264;19;19910;-80
2023/11/09 11:19:06;;;;;;;0.40;0.40;;;;;;;31.75;34.11;97497.88;7391205;19;20011;-80
2023/11/09 11:21:58;;;;;;;1.17;1.08;;;;;;;31.89;33.59;97491.75;7395379;19;20010;-80
2023/11/09 11:24:59;;;;;;;0.57;0.45;;;;;;;31.85;33.36;97488.75;7392346;19;20010;-81
2023/11/09 11:27:28;;;;;;;4.38;1.10;;;;;;;31.88;33.24;97491.00;7394893;19;20497;-81
2023/11/09 11:29:55;;;;;;;0.10;0.10;;;;;;;31.92;32.40;97478.88;7395340;19;20002;-81
2023/11/09 11:32:22;;;;;;;0.20;0.15;;;;;;;31.66;32.84;97469.56;7394118;19;20030;-81
2023/11/09 11:34:55;;;;;;;13.02;0.85;;;;;;;31.62;32.37;97469.47;7396285;19;20423;-80
2023/11/09 11:37:23;;;;;;;0.15;0.15;;;;;;;32.02;32.30;97470.50;7393205;19;20560;-80
2023/11/09 11:39:49;;;;;;;1.15;0.60;;;;;;;32.16;32.30;97468.69;7394553;19;20078;-81
2023/11/09 11:42:17;;;;;;;0.65;0.50;;;;;;;32.21;31.87;97463.00;7394525;19;20023;-81
2023/11/09 11:44:50;;;;;;;0.40;0.25;;;;;;;31.98;32.15;97474.03;7392583;19;20018;-80
2023/11/09 11:47:17;;;;;;;3.13;1.63;;;;;;;31.58;31.83;97460.72;7393685;19;20013;-81